createdAt,value
2022-08-26T00:03:39.318Z,100691.64
2022-08-26T00:08:42.463Z,100685.09
2022-08-26T00:13:49.666Z,100686.56
2022-08-26T00:18:53.199Z,100686.55
2022-08-26T00:23:56.057Z,100688.15
2022-08-26T00:28:58.931Z,100684.77
2022-08-26T00:34:03.200Z,100683.65
2022-08-26T00:39:08.541Z,100685.54
2022-08-26T00:44:11.522Z,100684.80
2022-08-26T00:49:22.279Z,100683.49
2022-08-26T00:54:26.923Z,100688.73
2022-08-26T00:59:33.054Z,100690.39
2022-08-26T01:04:36.715Z,100691.52
2022-08-26T01:09:39.730Z,100691.91
2022-08-26T01:14:42.723Z,100693.45
2022-08-26T01:19:53.444Z,100694.60
2022-08-26T01:24:59.272Z,100690.13
2022-08-26T01:30:02.253Z,100687.77
2022-08-26T01:35:07.591Z,100691.88
2022-08-26T01:40:14.923Z,100688.19
2022-08-26T01:45:25.528Z,100687.30
2022-08-26T01:50:33.341Z,100688.11
2022-08-26T01:55:38.212Z,100686.89
2022-08-26T02:00:44.095Z,100688.27
2022-08-26T02:06:09.309Z,100687.84
2022-08-26T02:11:13.311Z,100684.52
2022-08-26T02:16:18.451Z,100682.45
2022-08-26T02:21:21.908Z,100690.48
2022-08-26T02:26:27.706Z,100684.30
2022-08-26T02:31:30.492Z,100682.95
2022-08-26T02:36:33.518Z,100684.32
2022-08-26T02:41:45.084Z,100682.27
2022-08-26T02:46:48.345Z,100684.75
2022-08-26T02:51:51.863Z,100684.00
2022-08-26T02:56:56.162Z,100683.96
2022-08-26T03:01:58.931Z,100683.81
2022-08-26T03:07:01.703Z,100682.31
2022-08-26T03:12:04.613Z,100680.38
2022-08-26T03:17:07.788Z,100679.03
2022-08-26T03:22:14.487Z,100679.17
2022-08-26T03:27:17.754Z,100677.13
2022-08-26T03:32:20.755Z,100677.42
2022-08-26T03:37:25.300Z,100678.73
2022-08-26T03:42:29.397Z,100673.88
2022-08-26T03:47:32.643Z,100670.59
2022-08-26T03:52:35.635Z,100669.93
2022-08-26T03:57:38.433Z,100668.31
2022-08-26T04:02:45.948Z,100669.44
2022-08-26T04:07:48.861Z,100666.77
2022-08-26T04:12:53.392Z,100661.61
2022-08-26T04:17:57.232Z,100659.52
2022-08-26T04:23:00.523Z,100660.81
2022-08-26T04:28:03.780Z,100659.05
2022-08-26T04:33:12.647Z,100664.47
2022-08-26T04:38:16.322Z,100670.73
2022-08-26T04:43:19.037Z,100672.73
2022-08-26T04:48:21.791Z,100670.13
2022-08-26T04:53:24.646Z,100671.42
2022-08-26T04:58:27.659Z,100670.88
2022-08-26T05:03:31.177Z,100673.89
2022-08-26T05:08:34.155Z,100672.00
2022-08-26T05:13:39.106Z,100672.67
2022-08-26T05:18:43.570Z,100670.62
2022-08-26T05:23:49.461Z,100674.81
2022-08-26T05:28:54.579Z,100676.89
2022-08-26T05:33:58.429Z,100679.20
2022-08-26T05:39:01.755Z,100678.34
2022-08-26T05:44:07.967Z,100686.83
2022-08-26T05:49:13.373Z,100692.59
2022-08-26T05:54:21.668Z,100691.01
2022-08-26T05:59:25.329Z,100691.24
2022-08-26T06:04:29.971Z,100688.80
2022-08-26T06:09:36.243Z,100688.38
2022-08-26T06:14:41.628Z,100684.85
2022-08-26T06:19:44.563Z,100677.70
2022-08-26T06:25:07.308Z,100676.61
2022-08-26T06:30:12.316Z,100680.86
2022-08-26T06:35:15.540Z,100677.89
2022-08-26T06:40:20.990Z,100681.79
2022-08-26T06:45:24.366Z,100677.61
2022-08-26T06:50:27.128Z,100687.64
2022-08-26T06:55:31.276Z,100685.02
2022-08-26T07:00:34.163Z,100690.59
2022-08-26T07:05:36.953Z,100690.71
2022-08-26T07:10:39.734Z,100688.73
2022-08-26T07:15:42.804Z,100691.23
2022-08-26T07:20:45.751Z,100692.00
2022-08-26T07:25:48.604Z,100687.66
2022-08-26T07:30:51.888Z,100682.59
2022-08-26T07:35:56.074Z,100677.59
2022-08-26T07:40:58.888Z,100676.60
2022-08-26T07:46:02.053Z,100676.52
2022-08-26T07:51:04.993Z,100676.69
2022-08-26T07:56:07.761Z,100674.84
2022-08-26T08:01:11.756Z,100670.02
2022-08-26T08:06:17.975Z,100672.31
2022-08-26T08:11:21.226Z,100669.47
2022-08-26T08:16:26.025Z,100666.91
2022-08-26T08:21:30.412Z,100665.18
2022-08-26T08:27:38.826Z,100662.02
2022-08-26T08:32:43.615Z,100661.90
2022-08-26T08:37:46.788Z,100652.86
2022-08-26T08:43:05.278Z,100646.44
2022-08-26T08:48:27.599Z,100644.93
2022-08-26T08:53:37.524Z,100644.08
2022-08-26T08:58:59.506Z,100635.13
2022-08-26T09:04:20.708Z,100630.41
2022-08-26T09:09:37.535Z,100631.05
2022-08-26T09:14:40.482Z,100630.01
2022-08-26T09:19:48.441Z,100633.94
2022-08-26T09:24:52.384Z,100624.83
2022-08-26T09:29:59.043Z,100620.71
2022-08-26T09:35:09.950Z,100616.20
2022-08-26T09:40:12.991Z,100617.10
2022-08-26T09:45:17.039Z,100611.66
2022-08-26T09:50:29.346Z,100610.24
2022-08-26T09:55:38.290Z,100605.13
2022-08-26T10:00:57.309Z,100598.96
2022-08-26T10:06:23.355Z,100594.70
2022-08-26T10:11:47.269Z,100592.88
2022-08-26T10:17:14.644Z,100588.63
2022-08-26T10:22:29.557Z,100593.94
2022-08-26T10:28:05.238Z,100589.70
2022-08-26T10:33:10.990Z,100581.31
2022-08-26T10:38:17.801Z,100582.26
2022-08-26T10:43:30.199Z,100583.51
2022-08-26T10:49:06.725Z,100580.83
2022-08-26T10:54:19.832Z,100580.48
2022-08-26T10:59:51.847Z,100565.61
2022-08-26T11:05:04.368Z,100567.27
2022-08-26T11:10:16.250Z,100559.73
2022-08-26T11:15:24.883Z,100554.85
2022-08-26T11:20:27.954Z,100552.89
2022-08-26T11:25:31.420Z,100546.71
2022-08-26T11:30:41.033Z,100542.38
2022-08-26T11:35:43.769Z,100542.25
2022-08-26T11:41:06.477Z,100539.17
2022-08-26T11:46:12.009Z,100536.43
2022-08-26T11:51:24.522Z,100527.30
2022-08-26T11:56:31.613Z,100522.35
2022-08-26T12:01:39.209Z,100524.17
2022-08-26T12:06:51.113Z,100521.04
2022-08-26T12:11:58.131Z,100513.56
2022-08-26T12:17:27.321Z,100510.23
2022-08-26T12:22:37.033Z,100501.15
2022-08-26T12:27:44.574Z,100494.45
2022-08-26T12:32:57.539Z,100491.00
2022-08-26T12:38:02.017Z,100488.24
2022-08-26T12:43:07.052Z,100479.50
2022-08-26T12:48:27.469Z,100472.48
2022-08-26T12:53:35.116Z,100467.06
2022-08-26T12:58:38.719Z,100458.49
2022-08-26T13:03:45.339Z,100451.98
2022-08-26T13:08:52.934Z,100442.60
2022-08-26T13:14:10.525Z,100446.61
2022-08-26T13:19:19.406Z,100440.61
2022-08-26T13:24:37.138Z,100440.52
2022-08-26T13:29:40.074Z,100432.65
2022-08-26T13:34:48.193Z,100423.55
2022-08-26T13:39:54.449Z,100423.04
2022-08-26T13:44:58.224Z,100421.89
2022-08-26T13:50:01.536Z,100416.29
2022-08-26T13:55:04.965Z,100413.52
2022-08-26T14:00:11.113Z,100413.13
2022-08-26T14:05:14.018Z,100405.88
2022-08-26T14:10:16.926Z,100406.99
2022-08-26T14:15:19.720Z,100410.61
2022-08-26T14:20:27.326Z,100405.96
2022-08-26T14:25:30.462Z,100397.36
2022-08-26T14:30:33.383Z,100396.02
2022-08-26T14:35:36.132Z,100397.03
2022-08-26T14:40:40.309Z,100386.23
2022-08-26T14:45:44.164Z,100373.82
2022-08-26T14:50:46.908Z,100376.14
2022-08-26T14:55:50.606Z,100373.02
2022-08-26T15:00:53.324Z,100368.35
2022-08-26T15:05:56.759Z,100367.90
2022-08-26T15:10:59.642Z,100367.52
2022-08-26T15:16:02.764Z,100365.30
2022-08-26T15:21:06.120Z,100358.55
2022-08-26T15:26:10.353Z,100357.15
2022-08-26T15:31:13.895Z,100358.23
2022-08-26T15:36:16.754Z,100352.88
2022-08-26T15:41:19.560Z,100344.98
2022-08-26T15:46:22.398Z,100340.17
2022-08-26T15:51:34.236Z,100337.11
2022-08-26T15:56:38.582Z,100332.36
2022-08-26T16:01:41.424Z,100339.37
2022-08-26T16:06:46.992Z,100338.00
2022-08-26T16:11:49.934Z,100337.83
2022-08-26T16:16:53.442Z,100337.13
2022-08-26T16:21:56.220Z,100335.14
2022-08-26T16:26:59.427Z,100333.52
2022-08-26T16:32:08.607Z,100334.23
2022-08-26T16:37:11.772Z,100330.89
2022-08-26T16:42:15.327Z,100327.55
2022-08-26T16:47:18.534Z,100327.52
2022-08-26T16:52:21.380Z,100326.42
2022-08-26T16:57:27.640Z,100329.59
2022-08-26T17:02:30.504Z,100326.46
2022-08-26T17:07:35.572Z,100335.13
2022-08-26T17:12:39.196Z,100333.16
2022-08-26T17:17:42.019Z,100335.97
2022-08-26T17:22:48.210Z,100341.00
2022-08-26T17:27:51.469Z,100341.19
2022-08-26T17:32:54.458Z,100343.52
2022-08-26T17:37:57.221Z,100340.86
2022-08-26T17:43:00.116Z,100342.55
2022-08-26T17:48:03.450Z,100350.44
2022-08-26T17:53:06.489Z,100353.58
2022-08-26T17:58:09.440Z,100350.13
2022-08-26T18:03:13.073Z,100354.79
2022-08-26T18:08:15.867Z,100348.30
2022-08-26T18:13:18.993Z,100350.13
2022-08-26T18:18:21.741Z,100353.28
2022-08-26T18:23:24.732Z,100357.48
2022-08-26T18:28:29.604Z,100359.71
2022-08-26T18:33:35.476Z,100358.05
2022-08-26T18:38:38.209Z,100355.91
2022-08-26T18:43:45.576Z,100353.52
2022-08-26T18:48:50.779Z,100355.77
2022-08-26T18:53:54.120Z,100361.49
2022-08-26T18:58:59.028Z,100370.41
2022-08-26T19:04:03.622Z,100370.84
2022-08-26T19:09:08.256Z,100365.31
2022-08-26T19:14:14.199Z,100365.63
2022-08-26T19:19:17.117Z,100371.47
2022-08-26T19:24:20.549Z,100368.23
2022-08-26T19:29:24.863Z,100368.91
2022-08-26T19:34:28.061Z,100369.77
2022-08-26T19:39:30.897Z,100367.31
2022-08-26T19:44:52.659Z,100366.61
2022-08-26T19:49:55.811Z,100368.60
2022-08-26T19:54:59.036Z,100369.89
2022-08-26T20:00:02.589Z,100371.89
2022-08-26T20:05:06.547Z,100376.20
2022-08-26T20:10:15.110Z,100378.25
2022-08-26T20:15:19.505Z,100379.23
2022-08-26T20:20:40.867Z,100379.52
2022-08-26T20:25:43.644Z,100379.48
2022-08-26T20:30:46.459Z,100380.01
2022-08-26T20:35:49.256Z,100380.71
2022-08-26T20:40:51.987Z,100382.19
2022-08-26T20:45:59.168Z,100384.08
2022-08-26T20:51:02.081Z,100392.35
2022-08-26T20:56:08.298Z,100390.94
2022-08-26T21:01:22.499Z,100390.02
2022-08-26T21:06:25.333Z,100392.02
2022-08-26T21:11:29.200Z,100396.56
2022-08-26T21:16:32.280Z,100398.05
2022-08-26T21:21:35.697Z,100399.77
2022-08-26T21:26:38.675Z,100401.33
2022-08-26T21:32:16.729Z,100398.88
2022-08-26T21:37:19.612Z,100396.48
2022-08-26T21:42:25.371Z,100393.79
2022-08-26T21:47:28.760Z,100389.64
2022-08-26T21:52:31.525Z,100385.81
2022-08-26T21:57:36.485Z,100389.50
2022-08-26T22:34:45.671Z,100392.49
2022-08-26T22:39:48.412Z,100388.98
2022-08-26T22:46:29.134Z,100385.92
2022-08-26T22:51:32.110Z,100391.05
2022-08-26T22:57:08.491Z,100392.57
2022-08-26T23:02:12.090Z,100388.05
2022-08-26T23:07:19.150Z,100384.14
2022-08-26T23:12:22.145Z,100378.33
2022-08-26T23:17:24.974Z,100374.65
2022-08-26T23:22:28.928Z,100370.77
2022-08-26T23:27:31.719Z,100372.07
2022-08-26T23:32:34.795Z,100369.15
2022-08-26T23:37:41.609Z,100375.00
2022-08-26T23:42:44.509Z,100374.16
2022-08-26T23:47:47.484Z,100367.84
2022-08-26T23:53:05.781Z,100363.56
2022-08-26T23:58:08.739Z,100357.14
